MAPA DE AEROPUERTO

INFORMACIÓN METAR y TAF


Deprecated: The each() function is deprecated. This message will be suppressed on further calls in /home/customer/www/clickair-va.com/public_html/VAM/vam/helpers/get_metar.php on line 20
METAR FOR LEDA
ADDS - METARS form results

(0343 UTC 25 May 2022)
Data provider http://aviationweather.gov/metar/data/
 
METAR text: LEDA 250330Z AUTO VRB02KT 9999 BKN050 OVC060 12/11 Q1014
Conditions at: LEDA (LLEIDA-ALGUAIRE , ES) observed 0330 UTC 25 May 2022
Temperature: 12.0°C (54°F)
Dewpoint: 11.0°C (52°F) [RH = 94%]
Pressure (altimeter): 29.94 inches Hg (1014.0 mb)
Winds: variable direction winds at 2 MPH (2 knots; 1.0 m/s)
Visibility: 6 or more miles (10+ km)
Ceiling: 5000 feet AGL
Clouds: broken clouds at 5000 feet AGL
overcast cloud deck at 6000 feet AGL
Weather: no significant weather observed at this time

METAR text: LEDA 250300Z AUTO 27003KT 9999 BKN060 12/11 Q1014
Conditions at: LEDA (LLEIDA-ALGUAIRE , ES) observed 0300 UTC 25 May 2022
Temperature: 12.0°C (54°F)
Dewpoint: 11.0°C (52°F) [RH = 94%]
Pressure (altimeter): 29.94 inches Hg (1014.0 mb)
Winds: from the W (270 degrees) at 3 MPH (3 knots; 1.5 m/s)
Visibility: 6 or more miles (10+ km)
Ceiling: 6000 feet AGL
Clouds: broken clouds at 6000 feet AGL
Weather: no significant weather observed at this time